createdAt,value
2018-07-28T00:00:15.144Z,84.27
2018-07-28T00:01:15.132Z,85.52
2018-07-28T00:02:15.134Z,85.86
2018-07-28T00:03:15.136Z,87.50
2018-07-28T00:04:15.140Z,87.30
2018-07-28T00:05:15.145Z,89.14
2018-07-28T00:06:15.133Z,88.42
2018-07-28T00:07:15.136Z,87.84
2018-07-28T00:08:15.133Z,88.90
2018-07-28T00:09:15.133Z,89.77
2018-07-28T00:10:15.135Z,89.67
2018-07-28T00:11:15.132Z,89.67
2018-07-28T00:12:15.127Z,89.48
2018-07-28T00:13:15.131Z,90.59
2018-07-28T00:14:15.134Z,89.43
2018-07-28T00:15:15.140Z,89.43
2018-07-28T00:16:15.133Z,89.34
2018-07-28T00:17:15.137Z,89.63
2018-07-28T00:18:15.130Z,89.19
2018-07-28T00:19:15.131Z,88.81
2018-07-28T00:20:15.129Z,89.29
2018-07-28T00:21:15.130Z,89.48
2018-07-28T00:22:15.127Z,89.34
2018-07-28T00:23:15.146Z,89.72
2018-07-28T00:24:15.126Z,90.40
2018-07-28T00:25:15.145Z,90.40
2018-07-28T00:26:15.146Z,90.01
2018-07-28T00:27:15.134Z,91.07
2018-07-28T00:28:15.125Z,91.75
2018-07-28T00:29:15.125Z,91.46
2018-07-28T00:30:15.129Z,91.27
2018-07-28T00:31:15.129Z,92.18
2018-07-28T00:32:15.125Z,90.20
2018-07-28T00:33:15.129Z,90.16
2018-07-28T00:34:15.128Z,89.82
2018-07-28T00:35:15.127Z,89.72
2018-07-28T00:36:15.121Z,90.20
2018-07-28T00:37:15.116Z,90.40
2018-07-28T00:38:15.119Z,89.43
2018-07-28T00:39:15.117Z,90.40
2018-07-28T00:40:15.125Z,91.46
2018-07-28T00:41:15.135Z,90.40
2018-07-28T00:42:15.119Z,91.03
2018-07-28T00:43:15.118Z,90.55
2018-07-28T00:44:15.151Z,90.16
2018-07-28T00:45:15.116Z,90.06
2018-07-28T00:46:15.152Z,90.55
2018-07-28T00:47:15.115Z,90.26
2018-07-28T00:48:15.112Z,90.35
2018-07-28T00:49:15.113Z,90.55
2018-07-28T00:50:15.114Z,90.40
2018-07-28T00:51:15.118Z,90.16
2018-07-28T00:52:15.113Z,90.45
2018-07-28T00:53:15.110Z,90.35
2018-07-28T00:54:15.149Z,90.40
2018-07-28T00:55:15.108Z,90.20
2018-07-28T00:56:15.110Z,90.35
2018-07-28T00:57:15.111Z,90.06
2018-07-28T00:58:15.105Z,88.76
2018-07-28T00:59:15.104Z,88.33
2018-07-28T01:00:15.103Z,89.39
2018-07-28T01:01:15.103Z,89.01
2018-07-28T01:02:15.107Z,89.58
2018-07-28T01:03:15.103Z,88.91
2018-07-28T01:04:15.100Z,88.81
2018-07-28T01:05:15.101Z,89.97
2018-07-28T01:06:15.104Z,89.92
2018-07-28T01:07:15.106Z,89.92
2018-07-28T01:08:15.099Z,89.64
2018-07-28T01:09:15.102Z,89.54
2018-07-28T01:10:15.095Z,90.02
2018-07-28T01:11:15.096Z,89.35
2018-07-28T01:12:15.093Z,89.54
2018-07-28T01:13:15.095Z,90.41
2018-07-28T01:14:15.094Z,89.73
2018-07-28T01:15:15.092Z,90.31
2018-07-28T01:16:15.090Z,90.31
2018-07-28T01:17:15.088Z,90.55
2018-07-28T01:18:15.088Z,89.78
2018-07-28T01:19:15.086Z,89.20
2018-07-28T01:20:15.089Z,88.91
2018-07-28T01:21:15.088Z,87.90
2018-07-28T01:22:15.090Z,87.80
2018-07-28T01:23:15.093Z,87.41
2018-07-28T01:24:15.087Z,87.22
2018-07-28T01:25:15.090Z,86.83
2018-07-28T01:26:15.083Z,86.65
2018-07-28T01:27:15.122Z,87.22
2018-07-28T01:28:15.081Z,87.80
2018-07-28T01:29:15.081Z,87.26
2018-07-28T01:30:15.077Z,87.65
2018-07-28T02:04:31.358Z,91.90
2018-07-28T02:05:31.336Z,92.29
2018-07-28T02:06:31.329Z,92.38
2018-07-28T02:07:31.322Z,92.67
2018-07-28T02:08:31.319Z,92.96
2018-07-28T02:09:31.313Z,92.57
2018-07-28T02:10:31.309Z,92.29
2018-07-28T02:11:31.329Z,92.09
2018-07-28T02:12:31.304Z,92.57
2018-07-28T02:13:31.298Z,92.09
2018-07-28T02:14:31.295Z,92.09
2018-07-28T02:15:31.291Z,92.67
2018-07-28T02:16:31.287Z,92.19
2018-07-28T02:17:31.278Z,92.67
2018-07-28T02:18:31.282Z,93.15
2018-07-28T02:19:31.281Z,93.05
2018-07-28T02:20:31.277Z,92.72
2018-07-28T02:21:31.272Z,93.19
2018-07-28T02:22:31.295Z,94.16
2018-07-28T02:23:31.272Z,94.35
2018-07-28T02:24:31.269Z,94.26
2018-07-28T02:25:31.277Z,93.96
2018-07-28T02:26:31.261Z,94.31
2018-07-28T02:27:31.259Z,94.21
2018-07-28T02:28:31.261Z,94.78
2018-07-28T02:29:31.255Z,94.69
2018-07-28T02:30:31.254Z,94.69
2018-07-28T02:31:31.288Z,94.98
2018-07-28T02:32:31.253Z,95.45
2018-07-28T02:33:31.243Z,95.36
2018-07-28T02:34:31.247Z,94.98
2018-07-28T02:35:31.249Z,95.07
2018-07-28T02:36:31.248Z,95.60
2018-07-28T02:37:31.242Z,95.41
2018-07-28T02:38:31.245Z,95.89
2018-07-28T02:39:31.241Z,95.70
2018-07-28T02:40:31.240Z,95.50
2018-07-28T02:41:31.235Z,95.55
2018-07-28T02:42:31.234Z,95.75
2018-07-28T02:43:31.241Z,94.88
2018-07-28T02:44:31.235Z,94.54
2018-07-28T02:45:31.271Z,94.69
2018-07-28T02:46:31.229Z,95.26
2018-07-28T02:47:31.224Z,95.03
2018-07-28T02:48:31.264Z,95.21
2018-07-28T02:49:31.291Z,95.17
2018-07-28T02:50:31.232Z,95.45
2018-07-28T02:51:31.277Z,95.55
2018-07-28T02:52:31.274Z,95.45
2018-07-28T02:53:31.231Z,96.13
2018-07-28T02:54:31.230Z,95.84
2018-07-28T02:55:31.212Z,95.84
2018-07-28T02:56:31.219Z,95.84
2018-07-28T02:57:31.218Z,95.84
2018-07-28T02:58:31.207Z,95.55
2018-07-28T02:59:31.208Z,95.84
2018-07-28T03:00:31.210Z,95.55
2018-07-28T03:01:31.205Z,96.32
2018-07-28T03:02:31.196Z,95.84
2018-07-28T03:03:31.203Z,96.13
2018-07-28T03:04:31.200Z,95.45
2018-07-28T03:05:31.197Z,95.26
2018-07-28T03:06:31.192Z,96.47
2018-07-28T03:07:31.200Z,95.79
2018-07-28T03:08:31.192Z,96.18
2018-07-28T03:09:31.188Z,96.66
2018-07-28T03:10:31.194Z,96.37
2018-07-28T03:11:31.190Z,96.85
2018-07-28T03:12:31.207Z,96.99
2018-07-28T03:13:31.185Z,97.14
2018-07-28T03:14:31.206Z,96.66
2018-07-28T03:15:31.186Z,96.51
2018-07-28T03:16:31.182Z,96.94
2018-07-28T03:17:31.184Z,96.80
2018-07-28T03:18:31.177Z,96.80
2018-07-28T03:19:31.191Z,97.47
2018-07-28T03:20:31.177Z,97.56
2018-07-28T03:21:31.175Z,97.09
2018-07-28T03:22:31.178Z,97.47
2018-07-28T03:23:31.187Z,97.38
2018-07-28T03:24:31.175Z,97.09
2018-07-28T03:25:31.167Z,97.38
2018-07-28T03:26:31.164Z,97.28
2018-07-28T03:27:31.164Z,97.47
2018-07-28T03:28:31.168Z,97.56
2018-07-28T03:29:31.162Z,97.76
2018-07-28T03:30:31.159Z,97.56
2018-07-28T03:31:31.156Z,97.56
2018-07-28T03:32:31.155Z,97.38
2018-07-28T03:33:31.185Z,96.80
2018-07-28T03:34:31.154Z,97.42
2018-07-28T03:35:31.154Z,96.89
2018-07-28T03:36:31.152Z,96.89
2018-07-28T03:37:31.148Z,97.56
2018-07-28T03:38:31.142Z,97.47
2018-07-28T03:39:31.140Z,97.47
2018-07-28T03:40:31.142Z,97.47
2018-07-28T03:41:31.141Z,97.56
2018-07-28T03:42:31.140Z,97.38
2018-07-28T03:43:31.138Z,97.66
2018-07-28T03:44:31.133Z,97.47
2018-07-28T03:45:31.131Z,97.38
2018-07-28T03:46:31.131Z,97.66
2018-07-28T03:47:31.130Z,97.56
2018-07-28T03:48:31.130Z,97.66
2018-07-28T03:49:31.125Z,98.24
2018-07-28T03:50:31.122Z,97.56
2018-07-28T03:51:31.123Z,97.66
2018-07-28T03:52:31.124Z,96.89
2018-07-28T03:53:31.116Z,97.38
2018-07-28T03:54:31.116Z,97.81
2018-07-28T03:55:31.116Z,97.28
2018-07-28T03:56:31.131Z,97.19
2018-07-28T03:57:31.111Z,97.42
2018-07-28T03:58:31.107Z,96.94
2018-07-28T03:59:31.105Z,97.81
2018-07-28T04:00:31.106Z,97.33
2018-07-28T04:01:31.101Z,97.24
2018-07-28T04:02:31.101Z,97.61
2018-07-28T04:03:31.100Z,97.42
2018-07-28T04:04:31.096Z,97.24
2018-07-28T04:05:31.096Z,97.24
2018-07-28T04:06:31.093Z,97.14
2018-07-28T04:07:31.091Z,97.04
2018-07-28T04:08:31.091Z,97.24
2018-07-28T04:09:31.087Z,95.89
2018-07-28T04:10:31.089Z,96.37
2018-07-28T04:11:31.089Z,97.04
2018-07-28T04:12:31.083Z,97.04
2018-07-28T04:13:31.090Z,96.94
2018-07-28T04:14:31.223Z,97.14
2018-07-28T04:15:31.077Z,97.04
2018-07-28T04:16:31.076Z,96.70
2018-07-28T04:17:31.081Z,96.22
2018-07-28T04:18:31.071Z,96.13
2018-07-28T04:19:31.072Z,95.36
2018-07-28T04:20:31.065Z,96.03
2018-07-28T04:21:31.077Z,95.60
2018-07-28T04:22:31.069Z,95.65
2018-07-28T04:23:31.064Z,96.51
2018-07-28T04:24:31.062Z,96.51
2018-07-28T04:25:31.061Z,96.27
2018-07-28T04:26:31.066Z,96.27
2018-07-28T04:27:31.060Z,96.37
2018-07-28T04:28:31.105Z,96.17
2018-07-28T04:29:31.111Z,95.89
2018-07-28T04:30:31.054Z,96.08
2018-07-28T04:31:31.051Z,96.08
2018-07-28T04:32:31.051Z,96.27
2018-07-28T04:33:31.049Z,95.75
2018-07-28T04:34:31.050Z,95.84
2018-07-28T04:35:31.051Z,95.55
2018-07-28T04:36:31.048Z,95.84
2018-07-28T04:37:31.058Z,95.65
2018-07-28T04:38:31.049Z,95.75
2018-07-28T04:39:31.041Z,95.12
2018-07-28T04:40:31.040Z,94.64
2018-07-28T04:41:31.041Z,94.83
2018-07-28T04:42:31.045Z,94.06
2018-07-28T04:43:31.039Z,93.72
2018-07-28T04:44:52.062Z,93.15
2018-07-28T04:45:31.037Z,92.28
2018-07-28T04:46:31.037Z,92.66
2018-07-28T04:47:31.038Z,92.03
2018-07-28T04:48:31.038Z,93.00
2018-07-28T04:49:31.042Z,92.22
2018-07-28T04:50:31.036Z,91.69
2018-07-28T04:51:31.040Z,90.83
2018-07-28T04:52:31.037Z,90.73
2018-07-28T04:53:31.037Z,89.77
2018-07-28T04:54:31.043Z,90.44
2018-07-28T04:55:31.036Z,90.58
2018-07-28T04:56:31.226Z,89.43
2018-07-28T04:57:31.041Z,90.10
2018-07-28T04:58:31.038Z,89.62
2018-07-28T04:59:31.040Z,88.75
2018-07-28T05:00:31.043Z,89.14
2018-07-28T05:01:31.045Z,88.46
2018-07-28T05:02:31.044Z,88.08
2018-07-28T05:03:31.043Z,88.12
2018-07-28T05:04:31.046Z,87.74
2018-07-28T05:05:31.051Z,87.93
2018-07-28T05:06:31.046Z,87.35
2018-07-28T05:07:31.132Z,84.84
2018-07-28T05:08:31.052Z,86.29
2018-07-28T05:09:31.053Z,87.06
2018-07-28T05:10:31.055Z,86.91
2018-07-28T05:11:31.057Z,87.68
2018-07-28T05:12:31.055Z,87.88
2018-07-28T05:13:31.057Z,87.78
2018-07-28T05:14:31.060Z,88.36
2018-07-28T05:15:31.059Z,84.98
2018-07-28T05:16:31.063Z,84.79
2018-07-28T05:17:31.062Z,84.11
2018-07-28T05:18:31.064Z,84.93
2018-07-28T05:19:31.070Z,84.21
2018-07-28T05:20:31.069Z,84.93
2018-07-28T05:21:31.071Z,83.87
2018-07-28T05:22:31.073Z,83.63
2018-07-28T05:23:31.075Z,83.73
2018-07-28T05:24:31.079Z,84.31
2018-07-28T05:25:31.081Z,83.92
2018-07-28T05:26:31.084Z,84.98
2018-07-28T05:27:31.088Z,84.27
2018-07-28T05:28:31.085Z,85.61
2018-07-28T05:29:31.114Z,85.33
2018-07-28T05:30:31.099Z,85.33
2018-07-28T05:31:31.088Z,86.39
2018-07-28T05:32:31.093Z,87.79
2018-07-28T05:33:31.091Z,88.37
2018-07-28T05:34:31.097Z,88.27
2018-07-28T05:35:31.097Z,88.46
2018-07-28T05:36:31.101Z,88.89
2018-07-28T05:37:31.099Z,90.20
2018-07-28T05:38:31.101Z,89.53
2018-07-28T05:39:31.102Z,89.81
2018-07-28T05:40:31.102Z,89.76
2018-07-28T05:41:31.109Z,89.86
2018-07-28T05:42:31.147Z,89.95
2018-07-28T05:43:31.108Z,90.10
2018-07-28T05:44:31.114Z,90.39
2018-07-28T05:45:31.114Z,89.95
2018-07-28T05:46:31.115Z,90.15
2018-07-28T05:47:31.114Z,88.12
2018-07-28T05:48:31.119Z,87.54
2018-07-28T05:49:31.118Z,87.35
2018-07-28T05:50:31.120Z,87.10
2018-07-28T05:51:31.127Z,85.91
2018-07-28T05:52:31.127Z,85.23
2018-07-28T05:53:31.124Z,86.00
2018-07-28T05:54:31.125Z,85.71
2018-07-28T05:55:31.128Z,86.43
2018-07-28T05:56:31.134Z,86.72
2018-07-28T05:57:31.134Z,87.40
2018-07-28T05:58:31.134Z,87.30
2018-07-28T05:59:31.136Z,87.88
2018-07-28T06:00:31.137Z,88.26
2018-07-28T06:01:31.143Z,88.26
2018-07-28T06:02:31.275Z,88.65
2018-07-28T06:03:31.143Z,87.82
2018-07-28T06:04:31.144Z,87.34
2018-07-28T06:05:31.146Z,88.31
2018-07-28T06:06:31.146Z,88.64
2018-07-28T06:07:31.149Z,87.87
2018-07-28T06:08:31.156Z,87.91
2018-07-28T06:09:31.153Z,88.49
2018-07-28T06:10:31.159Z,86.99
2018-07-28T06:11:31.160Z,86.31
2018-07-28T06:12:31.161Z,86.02
2018-07-28T06:13:31.172Z,85.44
2018-07-28T06:14:31.167Z,85.87
2018-07-28T06:15:31.171Z,85.62
2018-07-28T06:16:31.175Z,85.04
2018-07-28T06:17:31.175Z,83.40
2018-07-28T06:18:31.180Z,83.05
2018-07-28T06:19:31.980Z,81.98
2018-07-28T06:20:31.176Z,81.40
2018-07-28T06:21:31.188Z,81.60
2018-07-28T06:22:31.194Z,80.38
2018-07-28T06:23:31.196Z,80.38
2018-07-28T06:24:31.213Z,78.15
2018-07-28T06:25:31.200Z,78.41
2018-07-28T06:26:31.207Z,77.96
2018-07-28T06:27:31.204Z,76.76
2018-07-28T06:28:31.216Z,76.91
2018-07-28T06:29:31.226Z,78.56
2018-07-28T06:30:31.225Z,79.04
2018-07-28T06:31:31.232Z,78.66
2018-07-28T06:32:31.227Z,78.56
2018-07-28T06:33:31.239Z,77.63
2018-07-28T06:34:31.239Z,77.05
2018-07-28T06:35:31.246Z,76.18
2018-07-28T06:36:31.287Z,76.02
2018-07-28T06:37:31.250Z,75.60
2018-07-28T06:38:31.258Z,76.62
2018-07-28T06:39:31.296Z,77.78
2018-07-28T06:40:31.263Z,77.30
2018-07-28T06:41:31.272Z,76.24
2018-07-28T06:42:31.282Z,76.76
2018-07-28T06:43:31.290Z,75.73
2018-07-28T06:44:31.294Z,75.57
2018-07-28T06:45:31.290Z,75.32
2018-07-28T06:46:31.291Z,73.15
2018-07-28T06:47:31.297Z,72.41
2018-07-28T06:48:31.302Z,72.51
2018-07-28T06:49:31.302Z,71.28
2018-07-28T06:50:31.305Z,71.58
2018-07-28T06:51:31.314Z,70.25
2018-07-28T06:52:31.317Z,69.48
2018-07-28T06:53:31.320Z,69.38
2018-07-28T06:54:31.327Z,68.54
2018-07-28T06:55:31.330Z,67.80
2018-07-28T06:56:31.336Z,68.41
2018-07-28T06:57:31.345Z,69.34
2018-07-28T06:58:31.368Z,71.80
2018-07-28T06:59:31.352Z,72.18
2018-07-28T07:00:31.358Z,71.99
2018-07-28T07:01:31.362Z,72.57
2018-07-28T07:02:31.370Z,74.66
2018-07-28T07:03:31.374Z,74.86
2018-07-28T07:04:31.383Z,73.54
2018-07-28T07:05:31.404Z,74.76
2018-07-28T07:06:31.390Z,75.83
2018-07-28T07:07:31.396Z,76.56
2018-07-28T07:08:31.402Z,76.86
2018-07-28T07:09:31.408Z,77.78
2018-07-28T07:10:31.415Z,78.66
2018-07-28T07:11:31.443Z,78.36
2018-07-28T07:12:31.426Z,79.52
2018-07-28T07:13:31.425Z,80.11
2018-07-28T07:14:31.432Z,80.59
2018-07-28T07:15:31.435Z,80.79
2018-07-28T07:16:31.442Z,80.69
2018-07-28T07:17:31.450Z,80.40
2018-07-28T07:18:31.455Z,80.92
2018-07-28T07:19:31.466Z,80.24
2018-07-28T07:20:31.463Z,79.72
2018-07-28T07:21:31.464Z,78.31
2018-07-28T07:22:31.468Z,77.63
2018-07-28T07:23:31.478Z,78.21
2018-07-28T07:24:31.481Z,78.17
2018-07-28T07:25:31.486Z,78.17
2018-07-28T07:26:31.489Z,78.75
2018-07-28T07:27:31.493Z,78.85
2018-07-28T07:28:31.497Z,79.14
2018-07-28T07:29:31.501Z,80.11
2018-07-28T07:30:31.508Z,80.49
2018-07-28T07:31:31.513Z,80.11
2018-07-28T07:32:31.519Z,81.17
2018-07-28T07:33:31.520Z,81.07
2018-07-28T07:34:31.523Z,80.94
2018-07-28T07:35:31.528Z,81.46
2018-07-28T07:36:31.535Z,81.46
2018-07-28T07:37:31.536Z,81.71
2018-07-28T07:38:31.555Z,81.23
2018-07-28T07:39:31.542Z,81.81
2018-07-28T07:40:31.552Z,82.48
2018-07-28T07:41:31.554Z,82.29
2018-07-28T07:42:31.553Z,82.06
2018-07-28T07:43:31.559Z,82.54
2018-07-28T07:44:31.560Z,83.12
2018-07-28T07:45:31.603Z,84.86
2018-07-28T07:46:31.613Z,84.28
2018-07-28T07:47:31.609Z,85.10
2018-07-28T07:48:31.576Z,85.87
2018-07-28T07:49:31.580Z,86.06
2018-07-28T07:50:31.578Z,85.48
2018-07-28T07:51:31.585Z,85.63
2018-07-28T07:52:31.586Z,86.41
2018-07-28T07:53:31.611Z,85.93
2018-07-28T07:54:31.586Z,86.99
2018-07-28T07:55:31.593Z,86.31
2018-07-28T07:56:31.604Z,86.27
2018-07-28T07:57:31.605Z,86.27
2018-07-28T07:58:31.595Z,86.17
2018-07-28T07:59:31.605Z,86.27
2018-07-28T08:00:31.607Z,86.27
2018-07-28T08:01:31.613Z,86.36
2018-07-28T08:02:31.652Z,87.04
2018-07-28T08:03:31.619Z,86.36
2018-07-28T08:04:31.621Z,86.75
2018-07-28T08:05:31.622Z,87.19
2018-07-28T08:06:31.676Z,87.87
2018-07-28T08:07:31.628Z,88.54
2018-07-28T08:08:31.630Z,88.06
2018-07-28T08:09:31.621Z,87.96
2018-07-28T08:10:31.633Z,87.96
2018-07-28T08:11:31.634Z,87.77
2018-07-28T08:12:31.684Z,87.58
2018-07-28T08:13:31.643Z,86.90
2018-07-28T08:14:31.646Z,87.09
2018-07-28T08:15:31.639Z,87.19
2018-07-28T08:16:31.648Z,88.40
2018-07-28T08:17:31.646Z,88.50
2018-07-28T08:18:31.651Z,89.07
2018-07-28T08:19:31.653Z,89.07
2018-07-28T08:20:31.663Z,89.95
2018-07-28T08:21:31.657Z,90.09
2018-07-28T08:22:31.662Z,91.06
2018-07-28T08:23:31.659Z,90.87
2018-07-28T08:24:31.658Z,91.44
2018-07-28T08:25:31.670Z,90.96
2018-07-28T08:26:31.663Z,91.50
2018-07-28T08:27:31.665Z,91.88
2018-07-28T08:28:31.668Z,91.40
2018-07-28T08:29:31.662Z,91.60
2018-07-28T08:30:31.671Z,91.50
2018-07-28T08:31:31.673Z,91.98
2018-07-28T08:32:31.674Z,92.46
2018-07-28T08:33:31.764Z,92.65
2018-07-28T08:34:31.675Z,92.17
2018-07-28T08:35:31.682Z,91.98
2018-07-28T08:36:31.676Z,92.94
2018-07-28T08:37:31.701Z,94.68
2018-07-28T08:38:31.679Z,94.68
2018-07-28T08:39:31.682Z,94.44
2018-07-28T08:40:31.691Z,94.92
2018-07-28T08:41:31.683Z,94.73
2018-07-28T08:42:31.683Z,94.54
2018-07-28T08:43:31.684Z,94.44
2018-07-28T08:44:31.682Z,94.24
2018-07-28T08:45:31.684Z,94.06
2018-07-28T08:46:31.686Z,94.54
2018-07-28T08:47:31.689Z,94.92
2018-07-28T08:48:31.685Z,95.02
2018-07-28T08:49:31.693Z,94.44
2018-07-28T08:50:31.693Z,94.24
2018-07-28T08:51:31.691Z,94.44
2018-07-28T08:52:31.707Z,94.82
2018-07-28T08:53:31.693Z,95.74
2018-07-28T08:54:31.741Z,95.74
2018-07-28T08:55:31.748Z,95.54
2018-07-28T08:56:31.705Z,95.84
2018-07-28T08:57:31.691Z,96.32
2018-07-28T08:58:31.691Z,97.38
2018-07-28T08:59:31.697Z,97.28
2018-07-28T09:00:31.696Z,97.67
2018-07-28T09:01:31.696Z,97.33
2018-07-28T09:02:31.697Z,97.96
2018-07-28T09:03:31.699Z,98.20
2018-07-28T09:04:31.703Z,97.33
2018-07-28T09:05:31.699Z,97.62
2018-07-28T09:06:31.707Z,97.62
2018-07-28T09:07:31.701Z,98.58
2018-07-28T09:08:31.699Z,98.00
2018-07-28T09:09:31.701Z,98.39
2018-07-28T09:10:31.748Z,98.20
2018-07-28T09:11:31.703Z,99.74
2018-07-28T09:12:31.725Z,98.39
2018-07-28T09:13:31.705Z,97.81
2018-07-28T09:14:31.706Z,99.02
2018-07-28T09:15:31.706Z,98.72
2018-07-28T09:16:31.712Z,99.11
2018-07-28T09:17:31.712Z,99.11
2018-07-28T09:18:31.708Z,99.40
2018-07-28T09:19:31.705Z,98.82
2018-07-28T09:20:31.707Z,99.69
2018-07-28T09:21:31.710Z,98.24
2018-07-28T09:22:31.806Z,99.99
2018-07-28T09:23:31.735Z,99.50
2018-07-28T09:24:31.711Z,99.99
2018-07-28T09:25:31.709Z,99.64
2018-07-28T09:26:31.718Z,99.99
2018-07-28T09:27:31.708Z,98.87
2018-07-28T09:28:31.709Z,98.34
2018-07-28T09:29:31.714Z,96.99
2018-07-28T09:30:31.756Z,98.68
2018-07-28T09:31:31.709Z,99.16
2018-07-28T09:32:31.710Z,98.49
2018-07-28T09:33:31.711Z,98.39
2018-07-28T09:34:31.706Z,96.66
2018-07-28T09:35:31.715Z,98.10
2018-07-28T09:36:31.713Z,96.94
2018-07-28T09:37:31.712Z,96.66
2018-07-28T09:38:31.719Z,96.08
2018-07-28T09:39:31.710Z,96.08
2018-07-28T09:40:31.713Z,94.59
2018-07-28T09:41:31.714Z,96.12
2018-07-28T09:42:31.731Z,97.04
2018-07-28T09:43:31.714Z,98.49
2018-07-28T09:44:31.722Z,97.47
2018-07-28T09:45:31.712Z,98.15
2018-07-28T09:46:31.733Z,96.61
2018-07-28T09:47:31.715Z,99.69
2018-07-28T09:48:31.715Z,98.63
2018-07-28T09:49:31.810Z,99.99
2018-07-28T09:50:31.763Z,98.68
2018-07-28T09:51:31.731Z,97.04
2018-07-28T09:52:31.733Z,97.91
2018-07-28T09:53:31.721Z,97.19
2018-07-28T09:54:31.722Z,96.17
2018-07-28T09:55:31.726Z,96.22
2018-07-28T09:56:31.726Z,97.57
2018-07-28T09:57:31.732Z,97.76
2018-07-28T09:58:31.724Z,99.30
2018-07-28T09:59:31.728Z,98.77
2018-07-28T10:00:31.732Z,99.55
2018-07-28T10:01:31.731Z,99.99
2018-07-28T10:02:31.746Z,98.10
2018-07-28T10:03:31.739Z,98.29
2018-07-28T10:04:31.739Z,99.50
2018-07-28T10:05:31.789Z,99.99
2018-07-28T10:06:32.036Z,99.55
2018-07-28T10:07:31.743Z,99.99
2018-07-28T10:08:31.755Z,99.99
2018-07-28T10:09:31.758Z,99.99
2018-07-28T10:10:31.750Z,99.99
2018-07-28T10:11:31.756Z,99.99
2018-07-28T10:12:31.756Z,99.99
2018-07-28T10:13:31.765Z,99.99
2018-07-28T10:14:31.780Z,99.99
2018-07-28T10:15:31.766Z,99.79
2018-07-28T10:16:31.774Z,99.36
2018-07-28T10:17:31.777Z,98.30
2018-07-28T10:18:31.782Z,98.68
2018-07-28T10:19:31.788Z,97.86
2018-07-28T10:20:31.791Z,98.73
2018-07-28T10:21:31.794Z,96.60
2018-07-28T10:22:31.805Z,95.73
2018-07-28T10:23:31.827Z,95.34
2018-07-28T10:24:31.842Z,95.15
2018-07-28T10:25:31.818Z,94.86
2018-07-28T10:26:31.829Z,94.76
2018-07-28T10:27:31.825Z,93.80
2018-07-28T10:28:31.870Z,94.91
2018-07-28T10:29:31.849Z,94.23
2018-07-28T10:30:31.850Z,93.55
2018-07-28T10:31:31.868Z,92.10
2018-07-28T10:32:31.863Z,89.92
2018-07-28T10:33:31.874Z,90.06
2018-07-28T10:34:31.882Z,88.07
2018-07-28T10:35:31.887Z,89.62
2018-07-28T10:36:31.928Z,88.79
2018-07-28T10:37:31.903Z,88.26
2018-07-28T10:38:31.908Z,83.99
2018-07-28T10:39:31.912Z,83.64
2018-07-28T10:40:31.922Z,81.68
2018-07-28T10:41:31.927Z,84.16
2018-07-28T10:42:31.942Z,81.01
2018-07-28T10:43:31.951Z,83.04
2018-07-28T10:44:31.958Z,80.02
2018-07-28T10:45:32.017Z,78.25
2018-07-28T10:46:31.982Z,75.71
2018-07-28T10:47:31.994Z,73.73
2018-07-28T10:48:32.003Z,74.67
2018-07-28T10:49:32.014Z,75.67
2018-07-28T10:50:32.035Z,75.70
2018-07-28T10:51:32.033Z,75.89
2018-07-28T10:52:32.048Z,73.47
2018-07-28T10:53:32.060Z,69.62
2018-07-28T10:54:32.066Z,67.60
2018-07-28T10:55:32.149Z,69.33
2018-07-28T10:56:32.093Z,65.56
2018-07-28T10:57:32.105Z,64.26
2018-07-28T10:58:32.237Z,62.36
2018-07-28T10:59:32.328Z,63.21
2018-07-28T11:00:33.042Z,63.02
2018-07-28T11:01:32.181Z,64.19
2018-07-28T11:02:32.967Z,63.31
2018-07-28T11:03:32.451Z,62.50
2018-07-28T11:04:32.212Z,62.76
2018-07-28T11:05:32.241Z,63.67
2018-07-28T11:06:32.324Z,63.15
2018-07-28T11:07:32.255Z,62.63
2018-07-28T11:08:32.261Z,64.39
2018-07-28T11:09:32.272Z,63.12
2018-07-28T11:10:32.283Z,63.96
2018-07-28T11:11:32.298Z,63.31
2018-07-28T11:12:32.307Z,62.73
2018-07-28T11:13:32.322Z,61.43
2018-07-28T11:14:32.335Z,60.49
2018-07-28T11:15:32.345Z,61.47
2018-07-28T11:16:32.358Z,61.63
2018-07-28T11:17:32.372Z,61.08
2018-07-28T11:18:32.433Z,61.27
2018-07-28T11:19:32.391Z,62.18
2018-07-28T11:20:32.412Z,61.21
2018-07-28T11:21:32.413Z,63.15
2018-07-28T11:22:32.439Z,62.79
2018-07-28T11:23:32.437Z,61.00
2018-07-28T11:24:32.480Z,60.35
2018-07-28T11:25:32.455Z,57.15
2018-07-28T11:26:32.472Z,55.79
2018-07-28T11:27:32.492Z,54.91
2018-07-28T11:28:32.498Z,55.08
2018-07-28T11:29:32.510Z,56.89
2018-07-28T11:30:32.530Z,54.54
2018-07-28T11:31:32.564Z,55.37
2018-07-28T11:32:32.598Z,57.93
2018-07-28T11:33:32.584Z,57.15
2018-07-28T11:34:32.574Z,56.85
2018-07-28T11:35:32.584Z,56.65
2018-07-28T11:36:32.603Z,54.79
2018-07-28T11:37:32.614Z,54.11
2018-07-28T11:38:32.627Z,54.96
2018-07-28T11:39:32.655Z,55.45
2018-07-28T11:40:32.662Z,56.86
2018-07-28T11:41:32.673Z,57.00
2018-07-28T11:42:32.702Z,57.10
2018-07-28T11:43:32.700Z,59.83
2018-07-28T11:44:32.713Z,57.78
2018-07-28T11:45:32.730Z,58.27
2018-07-28T11:46:32.738Z,57.59
2018-07-28T11:47:32.750Z,57.71
2018-07-28T11:48:32.764Z,58.20
2018-07-28T11:49:32.782Z,57.09
2018-07-28T11:50:32.792Z,56.09
2018-07-28T11:51:32.807Z,55.56
2018-07-28T11:52:32.819Z,53.20
2018-07-28T11:53:32.829Z,52.42
2018-07-28T11:54:32.857Z,53.35
2018-07-28T11:55:32.858Z,53.74
2018-07-28T11:56:32.892Z,54.77
2018-07-28T11:57:32.899Z,55.87
2018-07-28T11:58:32.992Z,54.91
2018-07-28T11:59:32.925Z,56.51
2018-07-28T12:00:32.937Z,58.34
2018-07-28T12:01:32.960Z,59.44
2018-07-28T12:02:32.965Z,59.44
2018-07-28T12:03:32.981Z,60.10
2018-07-28T12:04:32.992Z,60.71
2018-07-28T12:05:33.046Z,60.39
2018-07-28T12:06:33.019Z,61.66
2018-07-28T12:07:33.029Z,61.66
2018-07-28T12:08:33.040Z,61.56
2018-07-28T12:09:33.051Z,61.63
2018-07-28T12:10:33.061Z,61.72
2018-07-28T12:11:33.077Z,62.60
2018-07-28T12:12:33.135Z,63.57
2018-07-28T12:13:33.112Z,62.76
2018-07-28T12:14:33.110Z,62.47
2018-07-28T12:15:33.120Z,62.47
2018-07-28T12:16:33.134Z,63.35
2018-07-28T12:17:33.140Z,63.25
2018-07-28T12:18:33.183Z,62.93
2018-07-28T12:19:33.155Z,63.22
2018-07-28T12:20:33.171Z,64.39
2018-07-28T12:21:33.180Z,63.81
2018-07-28T12:22:33.187Z,64.49
2018-07-28T12:23:33.202Z,64.45
2018-07-28T12:24:33.199Z,64.84
2018-07-28T12:25:33.218Z,65.82
2018-07-28T12:26:33.232Z,66.93
2018-07-28T12:27:33.242Z,66.14
2018-07-28T12:28:33.249Z,66.50
2018-07-28T12:29:33.253Z,65.66
2018-07-28T12:30:33.264Z,66.21
2018-07-28T12:31:33.272Z,66.89
2018-07-28T12:32:33.283Z,67.25
2018-07-28T12:33:33.291Z,67.35
2018-07-28T12:34:33.359Z,68.51
2018-07-28T12:35:33.310Z,67.54
2018-07-28T12:36:33.335Z,68.22
2018-07-28T12:37:33.332Z,67.67
2018-07-28T12:38:33.337Z,68.71
2018-07-28T12:39:33.340Z,68.32
2018-07-28T12:40:33.354Z,67.83
2018-07-28T12:41:33.359Z,67.54
2018-07-28T12:42:33.369Z,68.61
2018-07-28T12:43:33.413Z,68.16
2018-07-28T12:44:33.390Z,68.80
2018-07-28T12:45:33.394Z,68.41
2018-07-28T12:46:33.402Z,67.77
2018-07-28T12:47:33.411Z,68.58
2018-07-28T12:48:33.430Z,68.58
2018-07-28T12:49:33.439Z,68.52
2018-07-28T12:50:33.431Z,67.18
2018-07-28T12:51:33.446Z,67.08
2018-07-28T12:52:33.454Z,65.14
2018-07-28T12:53:33.462Z,65.88
2018-07-28T12:54:33.472Z,67.05
2018-07-28T12:55:33.532Z,65.50
2018-07-28T12:56:33.489Z,66.86
2018-07-28T12:57:33.500Z,67.02
2018-07-28T12:58:33.501Z,67.12
2018-07-28T12:59:33.518Z,66.73
2018-07-28T13:00:33.524Z,67.77
2018-07-28T13:01:33.558Z,66.66
2018-07-28T13:02:33.543Z,67.93
2018-07-28T13:03:33.545Z,68.71
2018-07-28T13:04:33.563Z,69.48
2018-07-28T13:05:33.568Z,67.41
2018-07-28T13:06:33.580Z,67.70
2018-07-28T13:07:33.599Z,69.13
2018-07-28T13:08:33.598Z,69.87
2018-07-28T13:09:33.597Z,70.45
2018-07-28T13:10:33.609Z,70.45
2018-07-28T13:11:33.615Z,71.23
2018-07-28T13:12:33.654Z,72.07
2018-07-28T13:13:33.629Z,72.65
2018-07-28T13:14:33.637Z,73.33
2018-07-28T13:15:33.646Z,72.91
2018-07-28T13:16:33.649Z,73.33
2018-07-28T13:17:33.660Z,73.97
2018-07-28T13:18:33.675Z,73.78
2018-07-28T13:19:33.674Z,74.11
2018-07-28T13:20:33.684Z,72.52
2018-07-28T13:21:33.683Z,74.11
2018-07-28T13:22:33.710Z,74.01
2018-07-28T13:23:33.754Z,72.69
2018-07-28T13:24:33.709Z,69.93
2018-07-28T13:25:33.714Z,69.64